Time;durP1;ratioP1;P1;durP2;ratioP2;P2;SDS_P1;SDS_P2;PMS_P1;PMS_P2;Temp;Humidity;BMP_temperature;BMP_pressure;BME280_temperature;BME280_humidity;BME280_pressure;Samples;Min_cycle;Max_cycle;Signal;HPM_P1;HPM_P2
2024/02/09 00:01:52;;;;;;;16.05;6.55;;;;;;;;;;5041427;28;20250;-64
2024/02/09 00:04:20;;;;;;;14.85;6.03;;;;;;;;;;5039551;28;20224;-63
2024/02/09 00:06:50;;;;;;;10.57;4.72;;;;;;;;;;5040122;28;20204;-63
2024/02/09 00:09:19;;;;;;;9.95;4.25;;;;;;;;;;5047392;28;20238;-64
2024/02/09 00:11:49;;;;;;;11.02;4.05;;;;;;;;;;5032281;28;20201;-64
2024/02/09 00:14:17;;;;;;;10.52;4.28;;;;;;;;;;5037795;28;20189;-63
2024/02/09 00:16:45;;;;;;;10.23;4.45;;;;;;;;;;5042037;28;20205;-63
2024/02/09 00:19:14;;;;;;;9.33;4.23;;;;;;;;;;5047475;28;20200;-63
2024/02/09 00:21:42;;;;;;;9.20;4.00;;;;;;;;;;5029357;28;20623;-63
2024/02/09 00:24:11;;;;;;;5.63;3.42;;;;;;;;;;5040939;28;20623;-64
2024/02/09 00:26:39;;;;;;;6.75;3.88;;;;;;;;;;5048557;28;20216;-64
2024/02/09 00:29:08;;;;;;;9.55;3.67;;;;;;;;;;5048630;28;20204;-64
2024/02/09 00:31:37;;;;;;;7.45;3.20;;;;;;;;;;5045063;28;20196;-63
2024/02/09 00:34:05;;;;;;;6.63;3.58;;;;;;;;;;5040237;28;20193;-65
2024/02/09 00:36:34;;;;;;;5.43;3.35;;;;;;;;;;5036234;28;20257;-63
2024/02/09 00:39:05;;;;;;;7.88;4.07;;;;;;;;;;5043534;28;20258;-64
2024/02/09 00:41:33;;;;;;;4.95;3.30;;;;;;;;;;5046737;28;20636;-64
2024/02/09 00:44:03;;;;;;;8.80;3.07;;;;;;;;;;5035131;28;20221;-63
2024/02/09 00:46:32;;;;;;;5.10;3.55;;;;;;;;;;5046331;28;20616;-63
2024/02/09 00:49:02;;;;;;;5.95;2.90;;;;;;;;;;5043604;28;20194;-64
2024/02/09 00:51:31;;;;;;;10.70;3.05;;;;;;;;;;5028119;28;20213;-65
2024/02/09 00:54:00;;;;;;;5.93;3.10;;;;;;;;;;5032137;28;20208;-65
2024/02/09 00:56:28;;;;;;;7.82;2.65;;;;;;;;;;5043527;28;20647;-66
2024/02/09 00:58:57;;;;;;;4.10;2.90;;;;;;;;;;5048941;28;20563;-63
2024/02/09 01:01:25;;;;;;;4.93;3.13;;;;;;;;;;5046387;28;20208;-63
2024/02/09 01:03:55;;;;;;;5.25;3.88;;;;;;;;;;5039185;28;20641;-64
2024/02/09 01:06:24;;;;;;;6.55;3.55;;;;;;;;;;5043715;28;20204;-63
2024/02/09 01:08:52;;;;;;;5.75;3.08;;;;;;;;;;5051366;28;20200;-64
2024/02/09 01:11:21;;;;;;;6.60;2.92;;;;;;;;;;5049939;28;20709;-63
2024/02/09 02:45:11;;;;;;;6.55;3.55;;;;;;;;;;5049141;28;20200;-67
2024/02/09 02:47:40;;;;;;;7.25;4.18;;;;;;;;;;5039401;28;20184;-66
2024/02/09 03:06:45;;;;;;;8.73;4.88;;;;;;;;;;5043906;28;20443;-66
2024/02/09 03:09:14;;;;;;;9.82;4.40;;;;;;;;;;5047178;28;20199;-66
2024/02/09 03:11:45;;;;;;;6.80;4.53;;;;;;;;;;5041010;28;20196;-66
2024/02/09 03:14:15;;;;;;;12.13;4.65;;;;;;;;;;5027947;28;20207;-66
2024/02/09 03:16:45;;;;;;;7.72;6.03;;;;;;;;;;5036163;28;20222;-66
2024/02/09 03:19:15;;;;;;;9.35;5.75;;;;;;;;;;5041823;28;20205;-66
2024/02/09 03:21:43;;;;;;;9.52;5.38;;;;;;;;;;5048572;28;20387;-67
2024/02/09 03:24:11;;;;;;;11.43;6.13;;;;;;;;;;5045250;28;20220;-66
2024/02/09 03:26:39;;;;;;;13.80;6.65;;;;;;;;;;5047692;28;20223;-66
2024/02/09 03:29:07;;;;;;;12.48;6.95;;;;;;;;;;5049021;28;20208;-66
2024/02/09 03:31:37;;;;;;;18.58;6.47;;;;;;;;;;5041567;28;20189;-66
2024/02/09 03:34:05;;;;;;;15.57;6.75;;;;;;;;;;5037674;28;20205;-66
2024/02/09 03:36:34;;;;;;;16.13;7.30;;;;;;;;;;5034295;28;20844;-66
2024/02/09 03:39:02;;;;;;;16.52;7.22;;;;;;;;;;5047281;28;20643;-68
2024/02/09 03:41:31;;;;;;;15.10;6.65;;;;;;;;;;5034527;28;20234;-66
2024/02/09 03:44:03;;;;;;;14.00;7.30;;;;;;;;;;5048185;28;20285;-67
2024/02/09 03:46:32;;;;;;;16.27;8.75;;;;;;;;;;5041143;28;20647;-67
2024/02/09 03:49:04;;;;;;;15.38;7.30;;;;;;;;;;5048321;28;20204;-66
2024/02/09 03:51:32;;;;;;;17.73;7.80;;;;;;;;;;5048039;28;20192;-66
2024/02/09 03:54:01;;;;;;;17.33;7.68;;;;;;;;;;5047528;28;20196;-66
2024/02/09 03:56:30;;;;;;;15.75;8.07;;;;;;;;;;5048135;28;20224;-66
2024/02/09 03:58:59;;;;;;;10.85;6.70;;;;;;;;;;5047572;28;20218;-66
2024/02/09 04:01:28;;;;;;;15.80;7.93;;;;;;;;;;5014057;28;20277;-66
2024/02/09 04:03:56;;;;;;;18.60;7.30;;;;;;;;;;5047676;28;20634;-66
2024/02/09 04:06:25;;;;;;;20.50;8.65;;;;;;;;;;5041302;28;20197;-66
2024/02/09 04:08:54;;;;;;;14.40;8.65;;;;;;;;;;5043010;28;20241;-66
2024/02/09 04:11:23;;;;;;;20.27;8.52;;;;;;;;;;5039079;28;20205;-66
2024/02/09 04:13:51;;;;;;;14.13;7.47;;;;;;;;;;5027692;28;20819;-66
2024/02/09 04:16:20;;;;;;;14.35;9.07;;;;;;;;;;5032075;28;20211;-66
2024/02/09 04:18:48;;;;;;;20.25;9.82;;;;;;;;;;5037063;28;20207;-66
2024/02/09 04:21:16;;;;;;;13.68;7.60;;;;;;;;;;5028517;28;20239;-66
2024/02/09 04:23:46;;;;;;;17.58;9.32;;;;;;;;;;5046663;28;20220;-66
2024/02/09 04:26:15;;;;;;;22.85;10.00;;;;;;;;;;5047612;28;20195;-66
2024/02/09 04:28:43;;;;;;;13.80;8.85;;;;;;;;;;5046334;28;20201;-66
2024/02/09 04:31:11;;;;;;;19.92;9.25;;;;;;;;;;5047827;28;20212;-66
2024/02/09 04:33:39;;;;;;;20.88;9.60;;;;;;;;;;5048071;28;20748;-66
2024/02/09 04:36:08;;;;;;;16.38;9.20;;;;;;;;;;5040291;28;20204;-66
2024/02/09 04:38:40;;;;;;;12.07;7.90;;;;;;;;;;5047088;28;20208;-66
2024/02/09 04:41:10;;;;;;;21.73;10.02;;;;;;;;;;5042665;28;20196;-66
2024/02/09 04:43:38;;;;;;;24.58;9.50;;;;;;;;;;5034995;28;20640;-66
2024/02/09 04:46:06;;;;;;;15.98;9.50;;;;;;;;;;5038782;28;20201;-66
2024/02/09 04:48:34;;;;;;;20.40;9.13;;;;;;;;;;5051661;28;20639;-66
2024/02/09 04:51:06;;;;;;;17.30;9.73;;;;;;;;;;5050677;28;21185;-66
2024/02/09 04:53:34;;;;;;;17.85;10.10;;;;;;;;;;5051629;28;20200;-66
2024/02/09 04:56:03;;;;;;;14.70;10.05;;;;;;;;;;5051435;28;20212;-66
2024/02/09 04:58:32;;;;;;;16.38;9.38;;;;;;;;;;5052321;28;20622;-66
2024/02/09 05:01:00;;;;;;;19.23;11.82;;;;;;;;;;5051138;28;20200;-66
2024/02/09 05:03:29;;;;;;;17.85;10.25;;;;;;;;;;5050792;28;20201;-66
2024/02/09 05:05:57;;;;;;;16.48;10.20;;;;;;;;;;5033613;28;20193;-66
2024/02/09 05:08:25;;;;;;;27.13;12.70;;;;;;;;;;5051356;28;20261;-66
2024/02/09 05:10:53;;;;;;;15.20;11.15;;;;;;;;;;5051347;28;20209;-66
2024/02/09 05:13:21;;;;;;;19.02;10.93;;;;;;;;;;5049452;28;20705;-66
2024/02/09 05:15:51;;;;;;;22.48;10.90;;;;;;;;;;5050392;28;20200;-66
2024/02/09 05:18:19;;;;;;;22.83;12.15;;;;;;;;;;5045844;28;20238;-66
2024/02/09 05:20:48;;;;;;;19.98;10.65;;;;;;;;;;5040345;28;20267;-66
2024/02/09 05:23:16;;;;;;;22.85;12.02;;;;;;;;;;5031383;28;20205;-66
2024/02/09 05:25:44;;;;;;;21.25;11.02;;;;;;;;;;5043633;28;20219;-66
2024/02/09 05:28:13;;;;;;;24.77;11.93;;;;;;;;;;5051294;28;20204;-66
2024/02/09 05:30:41;;;;;;;18.20;9.65;;;;;;;;;;5049078;28;20792;-66
2024/02/09 05:33:11;;;;;;;19.38;9.32;;;;;;;;;;5050815;28;20208;-66
2024/02/09 05:35:39;;;;;;;16.90;9.90;;;;;;;;;;5042393;28;20211;-66
2024/02/09 05:38:07;;;;;;;20.00;9.98;;;;;;;;;;5050328;28;20201;-66
2024/02/09 05:40:35;;;;;;;20.70;10.80;;;;;;;;;;5037869;28;20727;-66
2024/02/09 05:43:03;;;;;;;18.83;9.93;;;;;;;;;;5039272;28;20201;-66
2024/02/09 05:45:32;;;;;;;23.98;11.10;;;;;;;;;;5034526;28;20213;-66
2024/02/09 05:48:00;;;;;;;16.20;10.23;;;;;;;;;;5042726;28;20207;-66
2024/02/09 05:50:32;;;;;;;19.75;9.88;;;;;;;;;;5033127;28;20215;-66
2024/02/09 05:53:00;;;;;;;18.90;10.43;;;;;;;;;;5039013;28;20201;-66
2024/02/09 05:55:29;;;;;;;15.65;9.48;;;;;;;;;;5040378;28;20219;-66
2024/02/09 05:57:57;;;;;;;27.27;10.70;;;;;;;;;;5049815;28;20240;-66
2024/02/09 06:00:25;;;;;;;22.75;9.73;;;;;;;;;;5045780;28;20215;-66
2024/02/09 06:02:55;;;;;;;18.90;8.65;;;;;;;;;;5032576;28;20205;-66
2024/02/09 06:05:23;;;;;;;18.48;11.02;;;;;;;;;;5030363;28;20217;-66
2024/02/09 06:07:53;;;;;;;19.30;9.43;;;;;;;;;;5039649;28;20359;-66
2024/02/09 06:10:21;;;;;;;27.50;11.02;;;;;;;;;;5031344;28;20193;-66
2024/02/09 06:12:49;;;;;;;21.50;10.20;;;;;;;;;;5036415;28;20310;-66
2024/02/09 06:15:17;;;;;;;20.00;10.93;;;;;;;;;;5042666;28;20202;-66
2024/02/09 06:17:45;;;;;;;19.77;9.98;;;;;;;;;;5043053;28;20607;-66
2024/02/09 06:20:22;;;;;;;22.35;10.18;;;;;;;;;;5044895;28;20197;-66
2024/02/09 06:22:50;;;;;;;18.50;9.00;;;;;;;;;;5036323;28;20638;-66
2024/02/09 06:25:20;;;;;;;14.93;8.73;;;;;;;;;;5041816;28;20224;-66
2024/02/09 06:27:48;;;;;;;16.85;8.60;;;;;;;;;;5048047;28;20210;-66
2024/02/09 06:30:17;;;;;;;21.48;8.55;;;;;;;;;;5039537;28;20201;-66
2024/02/09 06:32:45;;;;;;;16.92;9.52;;;;;;;;;;5029900;28;20197;-66
2024/02/09 06:35:13;;;;;;;11.77;8.07;;;;;;;;;;5038542;28;20201;-66
2024/02/09 06:37:41;;;;;;;14.55;8.27;;;;;;;;;;5041914;28;20211;-66
2024/02/09 06:40:10;;;;;;;15.57;8.88;;;;;;;;;;5047706;28;20561;-66
2024/02/09 06:42:39;;;;;;;18.27;7.60;;;;;;;;;;5045631;28;20209;-66
2024/02/09 06:45:08;;;;;;;20.25;7.82;;;;;;;;;;5046011;28;20217;-66
2024/02/09 06:47:38;;;;;;;13.90;9.48;;;;;;;;;;5049298;28;20217;-66
2024/02/09 06:50:07;;;;;;;12.52;7.35;;;;;;;;;;5048115;28;20545;-66
2024/02/09 06:52:37;;;;;;;19.05;8.68;;;;;;;;;;5048133;28;20219;-66
2024/02/09 06:55:08;;;;;;;13.85;7.43;;;;;;;;;;5031984;28;20201;-66
2024/02/09 06:57:36;;;;;;;15.25;7.78;;;;;;;;;;5043845;28;20651;-66
2024/02/09 07:00:08;;;;;;;13.65;7.82;;;;;;;;;;5039283;28;20262;-66
2024/02/09 07:02:37;;;;;;;15.82;8.10;;;;;;;;;;5038769;28;20853;-66
2024/02/09 07:05:06;;;;;;;11.88;7.30;;;;;;;;;;5037706;28;20205;-66
2024/02/09 07:07:38;;;;;;;12.98;8.07;;;;;;;;;;5040498;28;20197;-66
2024/02/09 07:10:07;;;;;;;25.17;8.57;;;;;;;;;;5038462;28;20189;-66
2024/02/09 07:12:41;;;;;;;12.50;6.85;;;;;;;;;;5036651;28;20259;-67
2024/02/09 07:15:12;;;;;;;14.38;7.32;;;;;;;;;;5023345;28;21909;-66
2024/02/09 07:17:40;;;;;;;9.13;6.30;;;;;;;;;;5042743;28;20281;-66
2024/02/09 07:20:11;;;;;;;13.27;7.70;;;;;;;;;;5044316;28;20196;-66
2024/02/09 07:22:40;;;;;;;10.70;7.60;;;;;;;;;;5038334;28;20235;-66
2024/02/09 07:25:08;;;;;;;12.57;7.78;;;;;;;;;;5020076;28;20571;-66
2024/02/09 07:27:36;;;;;;;10.25;6.85;;;;;;;;;;5043244;28;20200;-66
2024/02/09 07:30:05;;;;;;;15.10;6.97;;;;;;;;;;5038401;28;20556;-66
2024/02/09 07:32:34;;;;;;;8.60;6.47;;;;;;;;;;5036725;28;20205;-66
2024/02/09 07:35:04;;;;;;;11.52;7.00;;;;;;;;;;5038207;28;20195;-66
2024/02/09 07:37:32;;;;;;;12.35;6.88;;;;;;;;;;5040901;28;20237;-66
2024/02/09 07:40:02;;;;;;;12.52;7.20;;;;;;;;;;5037104;28;20197;-66
2024/02/09 07:42:31;;;;;;;14.95;7.63;;;;;;;;;;5039459;28;20197;-66
2024/02/09 07:44:59;;;;;;;12.05;6.72;;;;;;;;;;5038458;28;20265;-66
2024/02/09 07:47:28;;;;;;;10.82;7.10;;;;;;;;;;5035586;28;20205;-66
2024/02/09 07:49:58;;;;;;;12.20;7.40;;;;;;;;;;5040930;28;20271;-66
2024/02/09 07:52:29;;;;;;;14.93;7.82;;;;;;;;;;5045537;28;20735;-66
2024/02/09 07:54:57;;;;;;;9.85;7.10;;;;;;;;;;5048125;28;20189;-66
2024/02/09 07:57:25;;;;;;;9.30;7.60;;;;;;;;;;5040016;28;20278;-66
2024/02/09 07:59:54;;;;;;;11.95;6.78;;;;;;;;;;5028519;28;20584;-66
2024/02/09 08:02:22;;;;;;;12.90;6.82;;;;;;;;;;5041309;28;20596;-66
2024/02/09 08:04:50;;;;;;;14.50;7.10;;;;;;;;;;5045569;28;20550;-66
2024/02/09 08:07:20;;;;;;;10.82;6.30;;;;;;;;;;5047478;28;20212;-66
2024/02/09 08:09:49;;;;;;;11.55;6.72;;;;;;;;;;5047609;28;20203;-66
2024/02/09 08:12:17;;;;;;;10.25;7.18;;;;;;;;;;5047850;28;20219;-66
2024/02/09 08:14:45;;;;;;;16.23;6.75;;;;;;;;;;5047098;28;20201;-66
2024/02/09 08:17:13;;;;;;;11.85;7.80;;;;;;;;;;5047966;28;20192;-66
2024/02/09 08:19:41;;;;;;;13.38;9.70;;;;;;;;;;5051628;28;20210;-66
2024/02/09 08:22:10;;;;;;;15.00;8.50;;;;;;;;;;5052280;28;20274;-66
2024/02/09 08:24:39;;;;;;;13.02;8.98;;;;;;;;;;5051935;28;20641;-66
2024/02/09 08:27:08;;;;;;;13.93;8.17;;;;;;;;;;5052001;28;20273;-66
2024/02/09 08:29:36;;;;;;;14.30;6.50;;;;;;;;;;5052131;28;20615;-66
2024/02/09 08:32:05;;;;;;;11.10;6.63;;;;;;;;;;5050733;28;20582;-66
2024/02/09 08:34:33;;;;;;;9.50;6.30;;;;;;;;;;5051414;28;20601;-66
2024/02/09 08:37:02;;;;;;;8.40;5.10;;;;;;;;;;5051604;28;20558;-66
2024/02/09 08:39:30;;;;;;;11.90;6.03;;;;;;;;;;5051609;28;20615;-66
2024/02/09 08:42:00;;;;;;;6.63;5.13;;;;;;;;;;5049631;28;21186;-66
2024/02/09 08:44:28;;;;;;;9.57;5.47;;;;;;;;;;5051827;28;20915;-66
2024/02/09 08:46:56;;;;;;;7.40;5.30;;;;;;;;;;5052192;28;20749;-66
2024/02/09 08:49:24;;;;;;;20.23;5.80;;;;;;;;;;5051554;28;21173;-67
2024/02/09 08:51:52;;;;;;;6.87;6.03;;;;;;;;;;5051553;28;20590;-66
2024/02/09 08:54:21;;;;;;;9.68;4.63;;;;;;;;;;5033958;28;20621;-66
2024/02/09 08:56:51;;;;;;;7.07;4.37;;;;;;;;;;5047260;28;21123;-66
2024/02/09 08:59:20;;;;;;;7.30;4.70;;;;;;;;;;5031374;28;20719;-67
2024/02/09 09:01:48;;;;;;;13.73;5.40;;;;;;;;;;5030766;28;20651;-66
2024/02/09 09:04:17;;;;;;;7.87;4.80;;;;;;;;;;5030346;28;20205;-66
2024/02/09 09:06:45;;;;;;;7.20;5.70;;;;;;;;;;5045466;28;20634;-67
2024/02/09 09:09:14;;;;;;;12.35;5.68;;;;;;;;;;5050499;28;20615;-66
2024/02/09 09:11:43;;;;;;;8.07;5.68;;;;;;;;;;5050422;28;20238;-67
2024/02/09 09:14:11;;;;;;;9.30;6.03;;;;;;;;;;5050966;28;20209;-67
2024/02/09 09:16:41;;;;;;;12.82;5.45;;;;;;;;;;5050781;28;20576;-66
2024/02/09 09:19:10;;;;;;;11.17;5.03;;;;;;;;;;5049793;28;20200;-66
2024/02/09 09:21:39;;;;;;;10.43;5.32;;;;;;;;;;5050550;28;20643;-66
2024/02/09 09:24:08;;;;;;;7.17;5.10;;;;;;;;;;5044850;28;20242;-67
2024/02/09 09:26:36;;;;;;;13.47;6.50;;;;;;;;;;5038734;28;20965;-66
2024/02/09 09:29:05;;;;;;;7.10;6.30;;;;;;;;;;5047377;28;20599;-67
2024/02/09 09:31:33;;;;;;;8.30;6.33;;;;;;;;;;5050122;28;20971;-68
2024/02/09 09:34:03;;;;;;;11.73;6.87;;;;;;;;;;5050419;28;21028;-69
2024/02/09 09:36:33;;;;;;;8.77;5.70;;;;;;;;;;5049569;28;20607;-69
2024/02/09 09:39:05;;;;;;;10.33;5.40;;;;;;;;;;5030353;28;20586;-68
2024/02/09 09:41:36;;;;;;;10.13;5.70;;;;;;;;;;5030302;28;20580;-69
2024/02/09 09:44:04;;;;;;;12.97;5.70;;;;;;;;;;5030326;28;20554;-69
2024/02/09 09:46:34;;;;;;;14.07;6.90;;;;;;;;;;5041405;28;20710;-69
2024/02/09 09:49:04;;;;;;;6.97;5.23;;;;;;;;;;5045939;28;21397;-70
2024/02/09 09:51:34;;;;;;;11.20;5.80;;;;;;;;;;5038745;28;20594;-69
2024/02/09 09:54:02;;;;;;;11.00;6.20;;;;;;;;;;5028953;28;20885;-69
2024/02/09 09:56:31;;;;;;;18.30;13.27;;;;;;;;;;5036036;28;20622;-69
2024/02/09 09:58:59;;;;;;;33.00;13.87;;;;;;;;;;5033560;28;20607;-68
2024/02/09 10:01:29;;;;;;;18.70;11.83;;;;;;;;;;5039298;28;20612;-69
2024/02/09 10:03:57;;;;;;;10.53;8.47;;;;;;;;;;5037564;28;20947;-68
2024/02/09 10:06:28;;;;;;;8.40;6.73;;;;;;;;;;5050137;28;20998;-73
2024/02/09 10:08:56;;;;;;;17.83;7.10;;;;;;;;;;5050542;28;20975;-68
2024/02/09 10:11:24;;;;;;;12.40;5.60;;;;;;;;;;5050684;28;20619;-68
2024/02/09 10:13:52;;;;;;;9.87;6.73;;;;;;;;;;5049244;28;20607;-69
2024/02/09 10:16:22;;;;;;;14.37;6.57;;;;;;;;;;5038544;28;21189;-68
2024/02/09 10:18:50;;;;;;;10.10;5.20;;;;;;;;;;5043746;28;20602;-68
2024/02/09 10:21:18;;;;;;;5.70;4.87;;;;;;;;;;5050278;28;20629;-68
2024/02/09 10:23:48;;;;;;;13.93;4.77;;;;;;;;;;5042953;28;20599;-68
2024/02/09 10:26:16;;;;;;;17.57;11.17;;;;;;;;;;5030184;28;20594;-69
2024/02/09 10:28:44;;;;;;;7.03;4.90;;;;;;;;;;5046953;28;20633;-68
2024/02/09 10:31:13;;;;;;;6.87;4.40;;;;;;;;;;5050501;28;20619;-69
2024/02/09 10:33:42;;;;;;;13.27;6.03;;;;;;;;;;5039436;28;20601;-69
2024/02/09 10:36:11;;;;;;;10.70;5.00;;;;;;;;;;5043000;28;20637;-69
2024/02/09 10:38:39;;;;;;;7.63;4.00;;;;;;;;;;5039917;28;21024;-69
2024/02/09 10:41:09;;;;;;;5.13;4.17;;;;;;;;;;5041521;28;20650;-69
2024/02/09 10:43:38;;;;;;;7.10;4.70;;;;;;;;;;5047736;28;20619;-69
2024/02/09 10:46:07;;;;;;;12.20;4.17;;;;;;;;;;5049696;28;20623;-69
2024/02/09 10:48:37;;;;;;;6.20;4.10;;;;;;;;;;5049029;28;20670;-69
2024/02/09 10:51:08;;;;;;;4.73;3.30;;;;;;;;;;5050276;28;20607;-69
2024/02/09 10:53:36;;;;;;;5.20;3.90;;;;;;;;;;5049474;28;20903;-70
2024/02/09 10:56:05;;;;;;;6.47;3.97;;;;;;;;;;5049074;28;21185;-68
2024/02/09 10:58:36;;;;;;;6.83;4.10;;;;;;;;;;5034601;28;20636;-71
2024/02/09 11:01:05;;;;;;;5.53;4.20;;;;;;;;;;5029395;28;20576;-70
2024/02/09 11:04:11;;;;;;;8.03;4.33;;;;;;;;;;5004175;28;21272;-69
2024/02/09 11:06:41;;;;;;;8.07;3.73;;;;;;;;;;4989962;28;21206;-68
2024/02/09 11:09:12;;;;;;;16.03;4.70;;;;;;;;;;5003624;28;20626;-70
2024/02/09 11:11:45;;;;;;;14.57;6.20;;;;;;;;;;5014645;28;20696;-69
2024/02/09 11:14:29;;;;;;;9.70;4.83;;;;;;;;;;4999755;28;20973;-69
2024/02/09 11:17:07;;;;;;;11.83;6.07;;;;;;;;;;5006162;28;21159;-70
2024/02/09 11:19:39;;;;;;;9.70;5.10;;;;;;;;;;5005766;28;20609;-70
2024/02/09 11:22:10;;;;;;;8.53;4.23;;;;;;;;;;5027494;28;20665;-69
2024/02/09 11:24:38;;;;;;;5.53;3.40;;;;;;;;;;5035778;28;20634;-68
2024/02/09 11:27:07;;;;;;;28.63;5.20;;;;;;;;;;5048616;28;21047;-68
2024/02/09 11:29:40;;;;;;;7.03;4.50;;;;;;;;;;5048266;28;20646;-69
2024/02/09 11:32:08;;;;;;;6.43;4.00;;;;;;;;;;5047951;28;20984;-69
2024/02/09 11:34:37;;;;;;;13.73;8.80;;;;;;;;;;5048274;28;20641;-70
2024/02/09 11:37:06;;;;;;;9.53;4.10;;;;;;;;;;5047119;28;20631;-70
2024/02/09 11:39:34;;;;;;;7.60;4.70;;;;;;;;;;5038249;28;20619;-70
2024/02/09 11:42:04;;;;;;;15.10;4.83;;;;;;;;;;5033869;28;21230;-70
2024/02/09 11:44:32;;;;;;;9.67;5.30;;;;;;;;;;5045646;28;20623;-68
2024/02/09 11:47:02;;;;;;;10.93;4.50;;;;;;;;;;5046690;28;20623;-69
2024/02/09 11:49:30;;;;;;;11.60;4.70;;;;;;;;;;5034710;28;20645;-69
2024/02/09 11:52:02;;;;;;;8.57;5.37;;;;;;;;;;5046982;28;20986;-72
2024/02/09 11:54:33;;;;;;;6.90;3.77;;;;;;;;;;5045627;28;20610;-71
2024/02/09 11:57:01;;;;;;;6.37;3.10;;;;;;;;;;5035688;28;20646;-70
2024/02/09 11:59:30;;;;;;;7.30;3.20;;;;;;;;;;5046918;28;20639;-70
2024/02/09 12:01:59;;;;;;;3.70;3.40;;;;;;;;;;5037770;28;20620;-67
2024/02/09 12:04:29;;;;;;;9.97;2.83;;;;;;;;;;5026750;28;20624;-71
2024/02/09 12:06:59;;;;;;;4.47;2.87;;;;;;;;;;5037936;28;20612;-70
2024/02/09 12:09:27;;;;;;;4.20;2.90;;;;;;;;;;5034926;28;20684;-68
2024/02/09 12:11:55;;;;;;;6.20;3.10;;;;;;;;;;5037798;28;20627;-69
2024/02/09 12:14:23;;;;;;;10.57;3.17;;;;;;;;;;5047776;28;20700;-68
2024/02/09 12:16:52;;;;;;;3.93;3.37;;;;;;;;;;5038065;28;20647;-69
2024/02/09 12:19:20;;;;;;;9.00;2.80;;;;;;;;;;5046159;28;20623;-69
2024/02/09 12:21:51;;;;;;;10.20;3.07;;;;;;;;;;5047340;28;20659;-69
2024/02/09 12:24:19;;;;;;;5.83;2.93;;;;;;;;;;5048203;28;20580;-69
2024/02/09 12:26:48;;;;;;;5.63;3.20;;;;;;;;;;5048190;28;20615;-68
2024/02/09 12:29:16;;;;;;;12.83;3.90;;;;;;;;;;5042296;28;20975;-68
2024/02/09 12:31:48;;;;;;;8.03;5.13;;;;;;;;;;5046652;28;20631;-68
2024/02/09 12:34:16;;;;;;;6.20;4.60;;;;;;;;;;5037376;28;20607;-68
2024/02/09 12:36:56;;;;;;;8.07;3.90;;;;;;;;;;5028056;28;20620;-70
2024/02/09 12:39:24;;;;;;;11.33;4.93;;;;;;;;;;5034911;28;21355;-69
2024/02/09 12:41:58;;;;;;;3.40;3.07;;;;;;;;;;5036294;28;20665;-69
2024/02/09 12:44:27;;;;;;;6.07;3.60;;;;;;;;;;5035563;28;21288;-69
2024/02/09 12:46:59;;;;;;;6.50;3.40;;;;;;;;;;5036524;28;20616;-69
2024/02/09 12:49:36;;;;;;;5.10;3.40;;;;;;;;;;5036350;28;20667;-69
2024/02/09 12:52:08;;;;;;;6.47;3.53;;;;;;;;;;5036635;28;21072;-70
2024/02/09 12:54:37;;;;;;;5.20;3.03;;;;;;;;;;5037812;28;21266;-69
2024/02/09 12:57:06;;;;;;;6.00;3.80;;;;;;;;;;5033609;28;20674;-68
2024/02/09 12:59:35;;;;;;;5.50;2.57;;;;;;;;;;5038740;28;20616;-69
2024/02/09 13:02:04;;;;;;;8.10;3.20;;;;;;;;;;5036716;28;20623;-68
2024/02/09 13:04:33;;;;;;;5.50;2.93;;;;;;;;;;5038496;28;20626;-69
2024/02/09 13:07:05;;;;;;;4.93;3.20;;;;;;;;;;5034326;28;20628;-68
2024/02/09 13:09:35;;;;;;;5.30;3.00;;;;;;;;;;5051564;28;20711;-68
2024/02/09 13:12:03;;;;;;;4.63;3.00;;;;;;;;;;5050872;28;20713;-69
2024/02/09 13:14:36;;;;;;;3.97;3.00;;;;;;;;;;5051320;28;20627;-69
2024/02/09 13:17:06;;;;;;;5.03;3.10;;;;;;;;;;5042797;28;20599;-69
2024/02/09 13:19:37;;;;;;;7.90;2.67;;;;;;;;;;5039136;28;20618;-69
2024/02/09 13:22:08;;;;;;;8.70;2.83;;;;;;;;;;5031301;28;20642;-69
2024/02/09 13:24:39;;;;;;;3.57;3.00;;;;;;;;;;5048426;28;20602;-68
2024/02/09 13:27:07;;;;;;;4.03;2.50;;;;;;;;;;5051328;28;20579;-68
2024/02/09 13:29:36;;;;;;;5.53;3.13;;;;;;;;;;5041577;28;20986;-69
2024/02/09 13:32:04;;;;;;;3.40;3.10;;;;;;;;;;5041132;28;20619;-69
2024/02/09 13:34:32;;;;;;;6.20;3.10;;;;;;;;;;5050858;28;20625;-68
2024/02/09 13:37:01;;;;;;;4.30;2.70;;;;;;;;;;5043621;28;21188;-68
2024/02/09 13:39:29;;;;;;;5.80;2.90;;;;;;;;;;5043438;28;20620;-68
2024/02/09 13:41:59;;;;;;;6.70;2.73;;;;;;;;;;5037957;28;20638;-68
2024/02/09 13:44:27;;;;;;;9.53;3.90;;;;;;;;;;5041933;28;20594;-68
2024/02/09 13:46:55;;;;;;;12.10;10.20;;;;;;;;;;5033252;28;20615;-68
2024/02/09 13:49:24;;;;;;;5.23;3.40;;;;;;;;;;5050852;28;20666;-68
2024/02/09 13:51:52;;;;;;;4.80;2.83;;;;;;;;;;5042223;28;21376;-68
2024/02/09 13:54:20;;;;;;;3.43;2.37;;;;;;;;;;5031581;28;20628;-68
2024/02/09 13:56:48;;;;;;;4.70;2.90;;;;;;;;;;5031638;28;20666;-68
2024/02/09 13:59:18;;;;;;;2.60;2.40;;;;;;;;;;5038514;28;20628;-68
2024/02/09 14:01:46;;;;;;;3.23;2.10;;;;;;;;;;5035852;28;20616;-68
2024/02/09 14:04:14;;;;;;;3.33;2.30;;;;;;;;;;5033684;28;20767;-68
2024/02/09 14:06:43;;;;;;;6.67;2.50;;;;;;;;;;5042370;28;21221;-68
2024/02/09 14:09:11;;;;;;;7.90;2.83;;;;;;;;;;5049669;28;21530;-68
2024/02/09 14:11:39;;;;;;;2.60;2.40;;;;;;;;;;5039170;28;20611;-68
2024/02/09 14:14:07;;;;;;;10.77;3.27;;;;;;;;;;5041688;28;20620;-69
2024/02/09 14:16:37;;;;;;;6.43;2.70;;;;;;;;;;5046690;28;20619;-69
2024/02/09 14:19:05;;;;;;;3.43;2.67;;;;;;;;;;5042772;28;20647;-69
2024/02/09 14:21:37;;;;;;;3.93;2.63;;;;;;;;;;5038659;28;20742;-71
2024/02/09 14:24:07;;;;;;;5.30;2.53;;;;;;;;;;5038298;28;20622;-69
2024/02/09 14:26:35;;;;;;;7.03;2.40;;;;;;;;;;5049618;28;20710;-69
2024/02/09 14:29:04;;;;;;;5.67;2.60;;;;;;;;;;5041325;28;20658;-69
2024/02/09 14:31:32;;;;;;;5.20;2.80;;;;;;;;;;5063258;28;21193;-69
2024/02/09 14:34:05;;;;;;;5.53;2.67;;;;;;;;;;5045620;28;20595;-69
2024/02/09 14:36:33;;;;;;;10.23;2.40;;;;;;;;;;5046039;28;20623;-69
2024/02/09 14:39:02;;;;;;;8.70;1.93;;;;;;;;;;5044628;28;21082;-68
2024/02/09 14:41:30;;;;;;;3.90;2.77;;;;;;;;;;5041045;28;20611;-69
2024/02/09 14:43:59;;;;;;;3.43;2.80;;;;;;;;;;5044967;28;20669;-68
2024/02/09 14:46:28;;;;;;;3.90;2.83;;;;;;;;;;5039929;28;20650;-68
2024/02/09 14:48:58;;;;;;;3.53;2.50;;;;;;;;;;5042722;28;20969;-69
2024/02/09 14:51:29;;;;;;;4.77;2.93;;;;;;;;;;5040629;28;20619;-69
2024/02/09 14:53:57;;;;;;;8.10;3.20;;;;;;;;;;5028036;28;20592;-69
2024/02/09 14:56:26;;;;;;;4.70;3.40;;;;;;;;;;5044924;28;20647;-69
2024/02/09 14:58:57;;;;;;;6.50;3.50;;;;;;;;;;5041249;28;20602;-69
2024/02/09 15:01:25;;;;;;;5.77;3.37;;;;;;;;;;5036020;28;20630;-69
2024/02/09 15:03:53;;;;;;;4.67;3.33;;;;;;;;;;5043555;28;20629;-69
2024/02/09 15:06:23;;;;;;;12.73;5.13;;;;;;;;;;5046887;28;20619;-69
2024/02/09 15:08:53;;;;;;;6.87;3.43;;;;;;;;;;5048185;28;20667;-69
2024/02/09 15:11:22;;;;;;;6.70;3.33;;;;;;;;;;5046385;28;20660;-69
2024/02/09 15:13:58;;;;;;;2.60;2.40;;;;;;;;;;5037288;28;20635;-68
2024/02/09 15:16:26;;;;;;;8.60;2.40;;;;;;;;;;5038162;28;20974;-70
2024/02/09 15:18:54;;;;;;;5.53;2.43;;;;;;;;;;5041880;28;20615;-69
2024/02/09 15:21:23;;;;;;;6.60;2.67;;;;;;;;;;5040184;28;20643;-69
2024/02/09 15:23:54;;;;;;;8.83;4.00;;;;;;;;;;5032697;28;20624;-69
2024/02/09 15:26:26;;;;;;;3.07;2.40;;;;;;;;;;5045929;28;20618;-69
2024/02/09 15:28:56;;;;;;;4.27;2.30;;;;;;;;;;5045409;28;20677;-69
2024/02/09 15:31:24;;;;;;;4.53;2.50;;;;;;;;;;5040033;28;21147;-70
2024/02/09 15:33:55;;;;;;;9.63;3.00;;;;;;;;;;5043694;28;20618;-69
2024/02/09 15:36:24;;;;;;;3.07;2.63;;;;;;;;;;5038996;28;20619;-69
2024/02/09 15:38:54;;;;;;;7.50;2.40;;;;;;;;;;5047953;28;20619;-69
2024/02/09 15:41:22;;;;;;;6.00;2.33;;;;;;;;;;5043243;28;20662;-69
2024/02/09 15:43:52;;;;;;;4.77;2.83;;;;;;;;;;5042423;28;20742;-69
2024/02/09 15:46:20;;;;;;;6.10;3.20;;;;;;;;;;5044236;28;21199;-69
2024/02/09 15:48:50;;;;;;;6.93;2.20;;;;;;;;;;5039449;28;21755;-69
2024/02/09 15:51:22;;;;;;;3.50;2.30;;;;;;;;;;5040423;28;20595;-69
2024/02/09 15:53:52;;;;;;;4.27;3.10;;;;;;;;;;5046955;28;20596;-69
2024/02/09 15:56:29;;;;;;;4.53;2.93;;;;;;;;;;5044897;28;20641;-69
2024/02/09 15:58:57;;;;;;;4.97;2.40;;;;;;;;;;5043372;28;20585;-69
2024/02/09 16:01:26;;;;;;;3.00;2.63;;;;;;;;;;5041455;28;20602;-69
2024/02/09 16:03:59;;;;;;;7.07;2.40;;;;;;;;;;5028980;28;20581;-69
2024/02/09 16:06:27;;;;;;;4.80;2.50;;;;;;;;;;5037429;28;20603;-69
2024/02/09 16:08:56;;;;;;;5.83;2.93;;;;;;;;;;5043825;28;20664;-69
2024/02/09 16:11:31;;;;;;;8.97;2.73;;;;;;;;;;5039248;28;20848;-69
2024/02/09 16:14:01;;;;;;;7.47;3.57;;;;;;;;;;5040929;28;20613;-68
2024/02/09 16:16:30;;;;;;;4.53;3.83;;;;;;;;;;5039249;28;20620;-69
2024/02/09 16:19:00;;;;;;;4.47;2.87;;;;;;;;;;5042574;28;20619;-69
2024/02/09 16:21:30;;;;;;;4.50;4.10;;;;;;;;;;5045134;28;20681;-69
2024/02/09 16:23:59;;;;;;;7.67;4.53;;;;;;;;;;5048722;28;20618;-69
2024/02/09 16:26:29;;;;;;;6.63;3.10;;;;;;;;;;5048167;28;20594;-68
2024/02/09 16:28:57;;;;;;;7.87;3.67;;;;;;;;;;5045393;28;20623;-69
2024/02/09 16:31:25;;;;;;;5.67;3.20;;;;;;;;;;5037963;28;20667;-69
2024/02/09 16:33:56;;;;;;;8.57;3.17;;;;;;;;;;5045242;28;20690;-69
2024/02/09 16:36:25;;;;;;;3.70;3.33;;;;;;;;;;5037442;28;20608;-69